sensor_id;sensor_type;location;lat;lon;timestamp;P1;durP1;ratioP1;P2;durP2;ratioP2
9834;SDS011;4956;50.996;13.716;2022-07-29T00:02:50;3.33;;;1.70;;
9834;SDS011;4956;50.996;13.716;2022-07-29T00:06:10;4.23;;;1.60;;
9834;SDS011;4956;50.996;13.716;2022-07-29T00:09:31;2.60;;;1.80;;
9834;SDS011;4956;50.996;13.716;2022-07-29T00:12:51;6.72;;;1.65;;
9834;SDS011;4956;50.996;13.716;2022-07-29T00:16:12;2.83;;;1.60;;
9834;SDS011;4956;50.996;13.716;2022-07-29T00:19:34;5.05;;;2.67;;
9834;SDS011;4956;50.996;13.716;2022-07-29T00:22:54;6.50;;;4.00;;
9834;SDS011;4956;50.996;13.716;2022-07-29T00:26:15;7.87;;;5.07;;
9834;SDS011;4956;50.996;13.716;2022-07-29T00:29:37;9.93;;;5.50;;
9834;SDS011;4956;50.996;13.716;2022-07-29T00:32:57;9.27;;;5.47;;
9834;SDS011;4956;50.996;13.716;2022-07-29T00:36:18;7.90;;;5.03;;
9834;SDS011;4956;50.996;13.716;2022-07-29T00:39:38;6.40;;;4.40;;
9834;SDS011;4956;50.996;13.716;2022-07-29T00:42:58;5.87;;;3.50;;
9834;SDS011;4956;50.996;13.716;2022-07-29T00:46:18;5.50;;;2.75;;
9834;SDS011;4956;50.996;13.716;2022-07-29T00:49:40;4.50;;;2.30;;
9834;SDS011;4956;50.996;13.716;2022-07-29T00:53:01;3.45;;;1.98;;
9834;SDS011;4956;50.996;13.716;2022-07-29T00:56:22;3.35;;;2.20;;
9834;SDS011;4956;50.996;13.716;2022-07-29T00:59:42;3.17;;;2.30;;
9834;SDS011;4956;50.996;13.716;2022-07-29T01:03:02;5.60;;;2.20;;
9834;SDS011;4956;50.996;13.716;2022-07-29T01:06:23;4.40;;;2.00;;
9834;SDS011;4956;50.996;13.716;2022-07-29T01:09:43;3.70;;;2.15;;
9834;SDS011;4956;50.996;13.716;2022-07-29T01:13:05;4.38;;;2.47;;
9834;SDS011;4956;50.996;13.716;2022-07-29T01:16:29;6.13;;;2.10;;
9834;SDS011;4956;50.996;13.716;2022-07-29T01:31:03;2.63;;;1.80;;
9834;SDS011;4956;50.996;13.716;2022-07-29T01:34:38;4.63;;;1.92;;
9834;SDS011;4956;50.996;13.716;2022-07-29T01:41:32;2.60;;;1.70;;
9834;SDS011;4956;50.996;13.716;2022-07-29T01:48:48;12.95;;;9.52;;
9834;SDS011;4956;50.996;13.716;2022-07-29T01:52:15;13.65;;;10.10;;
9834;SDS011;4956;50.996;13.716;2022-07-29T01:55:41;11.77;;;7.88;;
9834;SDS011;4956;50.996;13.716;2022-07-29T01:59:04;12.75;;;7.72;;
9834;SDS011;4956;50.996;13.716;2022-07-29T02:02:27;11.15;;;7.32;;
9834;SDS011;4956;50.996;13.716;2022-07-29T02:05:48;10.15;;;7.43;;
9834;SDS011;4956;50.996;13.716;2022-07-29T02:09:10;10.98;;;8.18;;
9834;SDS011;4956;50.996;13.716;2022-07-29T02:12:32;11.95;;;6.93;;
9834;SDS011;4956;50.996;13.716;2022-07-29T02:15:53;10.15;;;6.78;;
9834;SDS011;4956;50.996;13.716;2022-07-29T02:19:18;8.25;;;6.13;;
9834;SDS011;4956;50.996;13.716;2022-07-29T02:22:40;8.75;;;6.40;;
9834;SDS011;4956;50.996;13.716;2022-07-29T02:26:00;11.57;;;7.32;;
9834;SDS011;4956;50.996;13.716;2022-07-29T02:29:22;9.77;;;7.57;;
9834;SDS011;4956;50.996;13.716;2022-07-29T02:32:43;13.48;;;8.57;;
9834;SDS011;4956;50.996;13.716;2022-07-29T02:36:05;12.70;;;9.07;;
9834;SDS011;4956;50.996;13.716;2022-07-29T02:39:25;15.68;;;11.10;;
9834;SDS011;4956;50.996;13.716;2022-07-29T02:42:47;19.67;;;11.80;;
9834;SDS011;4956;50.996;13.716;2022-07-29T02:46:08;25.30;;;18.63;;
9834;SDS011;4956;50.996;13.716;2022-07-29T02:49:50;30.48;;;19.40;;
9834;SDS011;4956;50.996;13.716;2022-07-29T02:53:18;25.80;;;19.13;;
9834;SDS011;4956;50.996;13.716;2022-07-29T02:56:40;27.38;;;18.77;;
9834;SDS011;4956;50.996;13.716;2022-07-29T03:00:04;27.83;;;18.17;;
9834;SDS011;4956;50.996;13.716;2022-07-29T03:03:27;20.77;;;16.20;;
9834;SDS011;4956;50.996;13.716;2022-07-29T03:06:50;18.90;;;13.13;;
9834;SDS011;4956;50.996;13.716;2022-07-29T03:10:10;18.20;;;11.77;;
9834;SDS011;4956;50.996;13.716;2022-07-29T03:13:32;14.07;;;9.30;;
9834;SDS011;4956;50.996;13.716;2022-07-29T03:16:52;16.75;;;11.50;;
9834;SDS011;4956;50.996;13.716;2022-07-29T03:20:13;15.95;;;11.68;;
9834;SDS011;4956;50.996;13.716;2022-07-29T03:23:33;21.58;;;16.30;;
9834;SDS011;4956;50.996;13.716;2022-07-29T03:26:56;39.55;;;26.55;;
9834;SDS011;4956;50.996;13.716;2022-07-29T03:30:17;36.92;;;28.00;;
9834;SDS011;4956;50.996;13.716;2022-07-29T03:33:37;40.23;;;28.60;;
9834;SDS011;4956;50.996;13.716;2022-07-29T03:36:57;38.40;;;28.17;;
9834;SDS011;4956;50.996;13.716;2022-07-29T03:40:22;41.47;;;29.67;;
9834;SDS011;4956;50.996;13.716;2022-07-29T03:43:44;42.60;;;30.88;;
9834;SDS011;4956;50.996;13.716;2022-07-29T03:47:05;46.53;;;32.65;;
9834;SDS011;4956;50.996;13.716;2022-07-29T03:50:27;45.85;;;31.95;;
9834;SDS011;4956;50.996;13.716;2022-07-29T03:53:48;44.50;;;32.88;;
9834;SDS011;4956;50.996;13.716;2022-07-29T03:57:08;48.53;;;34.90;;
9834;SDS011;4956;50.996;13.716;2022-07-29T04:00:30;52.53;;;36.00;;
9834;SDS011;4956;50.996;13.716;2022-07-29T04:03:51;44.45;;;33.47;;
9834;SDS011;4956;50.996;13.716;2022-07-29T04:07:13;45.85;;;34.65;;
9834;SDS011;4956;50.996;13.716;2022-07-29T04:10:33;50.92;;;35.00;;
9834;SDS011;4956;50.996;13.716;2022-07-29T04:13:54;49.80;;;34.40;;
9834;SDS011;4956;50.996;13.716;2022-07-29T04:17:14;43.85;;;33.60;;
9834;SDS011;4956;50.996;13.716;2022-07-29T04:20:34;46.67;;;32.73;;
9834;SDS011;4956;50.996;13.716;2022-07-29T04:23:55;45.27;;;32.97;;
9834;SDS011;4956;50.996;13.716;2022-07-29T04:27:15;44.40;;;33.00;;
9834;SDS011;4956;50.996;13.716;2022-07-29T04:30:36;39.88;;;31.50;;
9834;SDS011;4956;50.996;13.716;2022-07-29T04:33:57;38.63;;;30.83;;
9834;SDS011;4956;50.996;13.716;2022-07-29T04:37:17;47.25;;;31.65;;
9834;SDS011;4956;50.996;13.716;2022-07-29T04:40:37;46.13;;;30.30;;
9834;SDS011;4956;50.996;13.716;2022-07-29T04:43:58;41.42;;;30.15;;
9834;SDS011;4956;50.996;13.716;2022-07-29T04:47:20;38.72;;;28.98;;
9834;SDS011;4956;50.996;13.716;2022-07-29T04:50:41;43.23;;;28.83;;
9834;SDS011;4956;50.996;13.716;2022-07-29T04:54:02;40.33;;;28.52;;
9834;SDS011;4956;50.996;13.716;2022-07-29T04:57:22;40.65;;;29.15;;
9834;SDS011;4956;50.996;13.716;2022-07-29T05:00:42;40.63;;;28.58;;
9834;SDS011;4956;50.996;13.716;2022-07-29T05:04:03;47.45;;;34.25;;
9834;SDS011;4956;50.996;13.716;2022-07-29T05:07:23;55.88;;;40.97;;
9834;SDS011;4956;50.996;13.716;2022-07-29T05:10:43;59.43;;;43.03;;
9834;SDS011;4956;50.996;13.716;2022-07-29T05:14:04;58.25;;;42.70;;
9834;SDS011;4956;50.996;13.716;2022-07-29T05:17:25;63.33;;;45.33;;
9834;SDS011;4956;50.996;13.716;2022-07-29T05:20:45;64.80;;;46.65;;
9834;SDS011;4956;50.996;13.716;2022-07-29T05:24:05;60.37;;;45.73;;
9834;SDS011;4956;50.996;13.716;2022-07-29T05:27:26;65.00;;;44.53;;
9834;SDS011;4956;50.996;13.716;2022-07-29T05:30:46;52.73;;;40.30;;
9834;SDS011;4956;50.996;13.716;2022-07-29T05:34:06;55.38;;;40.67;;
9834;SDS011;4956;50.996;13.716;2022-07-29T05:37:26;56.97;;;42.53;;
9834;SDS011;4956;50.996;13.716;2022-07-29T05:40:47;58.15;;;41.67;;
9834;SDS011;4956;50.996;13.716;2022-07-29T05:44:07;62.30;;;45.20;;
9834;SDS011;4956;50.996;13.716;2022-07-29T05:47:28;62.53;;;44.85;;
9834;SDS011;4956;50.996;13.716;2022-07-29T05:50:48;56.65;;;39.08;;
9834;SDS011;4956;50.996;13.716;2022-07-29T05:54:09;56.35;;;41.05;;
9834;SDS011;4956;50.996;13.716;2022-07-29T05:57:29;57.37;;;40.23;;
9834;SDS011;4956;50.996;13.716;2022-07-29T06:00:49;62.03;;;40.72;;
9834;SDS011;4956;50.996;13.716;2022-07-29T06:04:10;62.13;;;43.57;;
9834;SDS011;4956;50.996;13.716;2022-07-29T06:07:30;64.13;;;44.87;;
9834;SDS011;4956;50.996;13.716;2022-07-29T06:10:50;71.90;;;51.20;;
9834;SDS011;4956;50.996;13.716;2022-07-29T06:14:11;69.57;;;49.42;;
9834;SDS011;4956;50.996;13.716;2022-07-29T06:17:31;75.30;;;49.17;;
9834;SDS011;4956;50.996;13.716;2022-07-29T06:20:52;79.43;;;50.13;;
9834;SDS011;4956;50.996;13.716;2022-07-29T06:24:13;79.68;;;53.80;;
9834;SDS011;4956;50.996;13.716;2022-07-29T06:27:34;82.45;;;54.65;;
9834;SDS011;4956;50.996;13.716;2022-07-29T06:30:54;89.67;;;57.73;;
9834;SDS011;4956;50.996;13.716;2022-07-29T06:34:14;88.37;;;57.13;;
9834;SDS011;4956;50.996;13.716;2022-07-29T06:37:35;83.78;;;57.45;;
9834;SDS011;4956;50.996;13.716;2022-07-29T06:40:55;83.30;;;54.70;;
9834;SDS011;4956;50.996;13.716;2022-07-29T06:44:22;90.60;;;56.97;;
9834;SDS011;4956;50.996;13.716;2022-07-29T06:47:42;87.33;;;57.07;;
9834;SDS011;4956;50.996;13.716;2022-07-29T06:51:03;96.80;;;58.77;;
9834;SDS011;4956;50.996;13.716;2022-07-29T06:54:23;89.68;;;58.50;;
9834;SDS011;4956;50.996;13.716;2022-07-29T06:57:44;94.05;;;59.03;;
9834;SDS011;4956;50.996;13.716;2022-07-29T07:01:05;95.72;;;60.20;;
9834;SDS011;4956;50.996;13.716;2022-07-29T07:04:26;93.25;;;61.70;;
9834;SDS011;4956;50.996;13.716;2022-07-29T07:07:46;104.53;;;67.63;;
9834;SDS011;4956;50.996;13.716;2022-07-29T07:11:07;114.72;;;68.15;;
9834;SDS011;4956;50.996;13.716;2022-07-29T07:14:29;109.82;;;65.28;;
9834;SDS011;4956;50.996;13.716;2022-07-29T07:17:49;106.03;;;67.27;;
9834;SDS011;4956;50.996;13.716;2022-07-29T07:21:10;102.38;;;65.30;;
9834;SDS011;4956;50.996;13.716;2022-07-29T07:24:31;101.22;;;65.70;;
9834;SDS011;4956;50.996;13.716;2022-07-29T07:27:51;102.00;;;66.07;;
9834;SDS011;4956;50.996;13.716;2022-07-29T07:31:11;99.33;;;65.80;;
9834;SDS011;4956;50.996;13.716;2022-07-29T07:34:32;105.45;;;67.60;;
9834;SDS011;4956;50.996;13.716;2022-07-29T07:37:53;111.25;;;69.30;;
9834;SDS011;4956;50.996;13.716;2022-07-29T07:41:14;102.70;;;68.45;;
9834;SDS011;4956;50.996;13.716;2022-07-29T07:44:34;108.23;;;70.67;;
9834;SDS011;4956;50.996;13.716;2022-07-29T07:47:56;105.32;;;67.13;;
9834;SDS011;4956;50.996;13.716;2022-07-29T07:51:17;85.53;;;60.43;;
9834;SDS011;4956;50.996;13.716;2022-07-29T07:54:37;94.75;;;60.30;;
9834;SDS011;4956;50.996;13.716;2022-07-29T07:57:57;88.97;;;58.60;;
9834;SDS011;4956;50.996;13.716;2022-07-29T08:01:18;85.68;;;57.25;;
9834;SDS011;4956;50.996;13.716;2022-07-29T08:04:41;95.15;;;61.80;;
9834;SDS011;4956;50.996;13.716;2022-07-29T08:08:02;82.00;;;53.45;;
9834;SDS011;4956;50.996;13.716;2022-07-29T08:11:22;77.28;;;48.38;;
9834;SDS011;4956;50.996;13.716;2022-07-29T08:14:42;74.37;;;47.80;;
9834;SDS011;4956;50.996;13.716;2022-07-29T08:18:03;65.35;;;42.13;;
9834;SDS011;4956;50.996;13.716;2022-07-29T08:21:24;69.20;;;46.58;;
9834;SDS011;4956;50.996;13.716;2022-07-29T08:24:44;55.90;;;37.72;;
9834;SDS011;4956;50.996;13.716;2022-07-29T08:28:23;53.05;;;36.83;;
9834;SDS011;4956;50.996;13.716;2022-07-29T08:31:43;57.38;;;40.40;;
9834;SDS011;4956;50.996;13.716;2022-07-29T08:35:05;66.30;;;44.35;;
9834;SDS011;4956;50.996;13.716;2022-07-29T08:38:25;61.03;;;41.60;;
9834;SDS011;4956;50.996;13.716;2022-07-29T08:41:47;55.72;;;36.13;;
9834;SDS011;4956;50.996;13.716;2022-07-29T08:45:08;61.20;;;39.17;;
9834;SDS011;4956;50.996;13.716;2022-07-29T08:48:28;53.60;;;35.72;;
9834;SDS011;4956;50.996;13.716;2022-07-29T08:51:49;42.78;;;29.10;;
9834;SDS011;4956;50.996;13.716;2022-07-29T08:55:09;39.00;;;24.55;;
9834;SDS011;4956;50.996;13.716;2022-07-29T08:58:31;35.35;;;23.80;;
9834;SDS011;4956;50.996;13.716;2022-07-29T09:01:52;31.20;;;23.48;;
9834;SDS011;4956;50.996;13.716;2022-07-29T09:05:13;33.97;;;21.95;;
9834;SDS011;4956;50.996;13.716;2022-07-29T09:08:34;32.35;;;21.83;;
9834;SDS011;4956;50.996;13.716;2022-07-29T09:11:54;37.38;;;23.13;;
9834;SDS011;4956;50.996;13.716;2022-07-29T09:15:15;36.53;;;21.67;;
9834;SDS011;4956;50.996;13.716;2022-07-29T09:18:39;33.38;;;20.73;;
9834;SDS011;4956;50.996;13.716;2022-07-29T09:22:01;27.58;;;18.77;;
9834;SDS011;4956;50.996;13.716;2022-07-29T09:25:33;27.80;;;17.73;;
9834;SDS011;4956;50.996;13.716;2022-07-29T09:28:57;27.15;;;16.73;;
9834;SDS011;4956;50.996;13.716;2022-07-29T09:32:17;30.13;;;18.70;;
9834;SDS011;4956;50.996;13.716;2022-07-29T09:35:38;29.53;;;19.50;;
9834;SDS011;4956;50.996;13.716;2022-07-29T09:39:01;38.83;;;21.30;;
9834;SDS011;4956;50.996;13.716;2022-07-29T09:42:29;31.20;;;20.35;;
9834;SDS011;4956;50.996;13.716;2022-07-29T09:45:49;32.63;;;19.92;;
9834;SDS011;4956;50.996;13.716;2022-07-29T09:49:11;29.48;;;19.75;;
9834;SDS011;4956;50.996;13.716;2022-07-29T09:52:32;33.03;;;22.30;;
9834;SDS011;4956;50.996;13.716;2022-07-29T09:56:05;42.67;;;24.83;;
9834;SDS011;4956;50.996;13.716;2022-07-29T09:59:25;38.63;;;26.40;;
9834;SDS011;4956;50.996;13.716;2022-07-29T10:02:46;34.28;;;21.65;;
9834;SDS011;4956;50.996;13.716;2022-07-29T10:06:10;40.58;;;23.75;;
9834;SDS011;4956;50.996;13.716;2022-07-29T10:09:33;35.88;;;19.17;;
9834;SDS011;4956;50.996;13.716;2022-07-29T10:13:01;26.38;;;16.75;;
9834;SDS011;4956;50.996;13.716;2022-07-29T10:16:22;38.45;;;20.48;;
9834;SDS011;4956;50.996;13.716;2022-07-29T10:19:47;26.75;;;17.60;;
9834;SDS011;4956;50.996;13.716;2022-07-29T10:23:08;26.50;;;16.95;;
9834;SDS011;4956;50.996;13.716;2022-07-29T10:26:29;23.02;;;14.60;;
9834;SDS011;4956;50.996;13.716;2022-07-29T10:29:50;23.58;;;14.80;;
9834;SDS011;4956;50.996;13.716;2022-07-29T10:37:12;13.05;;;9.00;;
9834;SDS011;4956;50.996;13.716;2022-07-29T10:40:45;14.02;;;8.57;;
9834;SDS011;4956;50.996;13.716;2022-07-29T10:44:33;14.10;;;7.75;;
9834;SDS011;4956;50.996;13.716;2022-07-29T10:48:04;12.68;;;7.45;;
9834;SDS011;4956;50.996;13.716;2022-07-29T10:51:25;12.30;;;7.65;;
9834;SDS011;4956;50.996;13.716;2022-07-29T10:55:30;10.05;;;6.13;;
9834;SDS011;4956;50.996;13.716;2022-07-29T11:06:02;5.43;;;3.00;;
9834;SDS011;4956;50.996;13.716;2022-07-29T11:09:22;4.35;;;3.15;;
9834;SDS011;4956;50.996;13.716;2022-07-29T11:16:03;5.40;;;3.00;;
9834;SDS011;4956;50.996;13.716;2022-07-29T11:19:25;8.48;;;3.92;;
9834;SDS011;4956;50.996;13.716;2022-07-29T11:22:46;5.95;;;5.00;;
9834;SDS011;4956;50.996;13.716;2022-07-29T11:29:29;4.55;;;3.00;;
9834;SDS011;4956;50.996;13.716;2022-07-29T11:32:51;5.75;;;2.80;;
9834;SDS011;4956;50.996;13.716;2022-07-29T11:36:14;6.80;;;3.38;;
9834;SDS011;4956;50.996;13.716;2022-07-29T11:39:36;5.95;;;3.20;;
9834;SDS011;4956;50.996;13.716;2022-07-29T11:42:57;3.85;;;2.80;;
9834;SDS011;4956;50.996;13.716;2022-07-29T11:47:02;6.43;;;4.13;;
9834;SDS011;4956;50.996;13.716;2022-07-29T11:50:10;5.80;;;3.53;;
9834;SDS011;4956;50.996;13.716;2022-07-29T11:53:36;3.25;;;2.95;;
9834;SDS011;4956;50.996;13.716;2022-07-29T11:56:56;3.25;;;2.75;;
9834;SDS011;4956;50.996;13.716;2022-07-29T12:00:25;3.13;;;2.83;;
9834;SDS011;4956;50.996;13.716;2022-07-29T12:03:47;5.53;;;2.97;;
9834;SDS011;4956;50.996;13.716;2022-07-29T12:07:07;6.20;;;3.20;;
9834;SDS011;4956;50.996;13.716;2022-07-29T12:10:29;4.53;;;2.87;;
9834;SDS011;4956;50.996;13.716;2022-07-29T12:13:50;4.15;;;2.90;;
9834;SDS011;4956;50.996;13.716;2022-07-29T12:17:24;5.07;;;2.80;;
9834;SDS011;4956;50.996;13.716;2022-07-29T12:20:49;3.28;;;2.97;;
9834;SDS011;4956;50.996;13.716;2022-07-29T12:24:16;3.72;;;3.28;;
9834;SDS011;4956;50.996;13.716;2022-07-29T12:27:38;5.07;;;3.00;;
9834;SDS011;4956;50.996;13.716;2022-07-29T12:30:58;5.32;;;3.15;;
9834;SDS011;4956;50.996;13.716;2022-07-29T12:34:19;7.93;;;3.33;;
9834;SDS011;4956;50.996;13.716;2022-07-29T12:37:43;5.60;;;3.30;;
9834;SDS011;4956;50.996;13.716;2022-07-29T12:41:04;5.03;;;3.20;;
9834;SDS011;4956;50.996;13.716;2022-07-29T12:44:24;5.40;;;3.17;;
9834;SDS011;4956;50.996;13.716;2022-07-29T12:47:52;4.25;;;2.85;;
9834;SDS011;4956;50.996;13.716;2022-07-29T12:51:13;7.10;;;3.58;;
9834;SDS011;4956;50.996;13.716;2022-07-29T12:54:34;3.85;;;3.20;;
9834;SDS011;4956;50.996;13.716;2022-07-29T12:57:54;3.90;;;3.20;;
9834;SDS011;4956;50.996;13.716;2022-07-29T13:01:15;3.43;;;3.00;;
9834;SDS011;4956;50.996;13.716;2022-07-29T13:04:37;3.83;;;2.90;;
9834;SDS011;4956;50.996;13.716;2022-07-29T13:08:09;7.78;;;3.28;;
9834;SDS011;4956;50.996;13.716;2022-07-29T13:11:33;4.70;;;3.20;;
9834;SDS011;4956;50.996;13.716;2022-07-29T13:14:55;5.00;;;3.50;;
9834;SDS011;4956;50.996;13.716;2022-07-29T13:21:57;4.75;;;3.05;;
9834;SDS011;4956;50.996;13.716;2022-07-29T13:25:27;4.22;;;3.05;;
9834;SDS011;4956;50.996;13.716;2022-07-29T13:28:49;3.33;;;3.03;;
9834;SDS011;4956;50.996;13.716;2022-07-29T13:32:09;4.20;;;2.97;;
9834;SDS011;4956;50.996;13.716;2022-07-29T13:35:30;3.33;;;3.03;;
9834;SDS011;4956;50.996;13.716;2022-07-29T13:38:50;4.33;;;3.30;;
9834;SDS011;4956;50.996;13.716;2022-07-29T13:42:10;6.80;;;3.00;;
9834;SDS011;4956;50.996;13.716;2022-07-29T13:45:33;3.88;;;3.00;;
9834;SDS011;4956;50.996;13.716;2022-07-29T13:48:53;4.63;;;3.00;;
9834;SDS011;4956;50.996;13.716;2022-07-29T13:52:13;4.30;;;2.97;;
9834;SDS011;4956;50.996;13.716;2022-07-29T13:55:34;3.40;;;2.88;;
9834;SDS011;4956;50.996;13.716;2022-07-29T13:58:54;4.00;;;3.00;;
9834;SDS011;4956;50.996;13.716;2022-07-29T14:02:14;5.10;;;3.07;;
9834;SDS011;4956;50.996;13.716;2022-07-29T14:05:34;5.33;;;3.00;;
9834;SDS011;4956;50.996;13.716;2022-07-29T14:08:55;3.00;;;2.70;;
9834;SDS011;4956;50.996;13.716;2022-07-29T14:12:15;4.50;;;3.28;;
9834;SDS011;4956;50.996;13.716;2022-07-29T14:15:36;3.30;;;3.00;;
9834;SDS011;4956;50.996;13.716;2022-07-29T14:18:56;3.72;;;2.80;;
9834;SDS011;4956;50.996;13.716;2022-07-29T14:22:16;3.80;;;3.10;;
9834;SDS011;4956;50.996;13.716;2022-07-29T14:25:38;5.22;;;3.30;;
9834;SDS011;4956;50.996;13.716;2022-07-29T14:28:59;4.43;;;2.87;;
9834;SDS011;4956;50.996;13.716;2022-07-29T14:32:19;3.43;;;3.00;;
9834;SDS011;4956;50.996;13.716;2022-07-29T14:35:39;3.87;;;2.97;;
9834;SDS011;4956;50.996;13.716;2022-07-29T14:39:00;12.05;;;3.00;;
9834;SDS011;4956;50.996;13.716;2022-07-29T14:42:20;7.28;;;3.17;;
9834;SDS011;4956;50.996;13.716;2022-07-29T14:45:40;3.67;;;2.93;;
9834;SDS011;4956;50.996;13.716;2022-07-29T14:49:01;3.88;;;3.15;;
9834;SDS011;4956;50.996;13.716;2022-07-29T14:52:21;4.10;;;2.90;;
9834;SDS011;4956;50.996;13.716;2022-07-29T14:55:41;8.03;;;3.10;;
9834;SDS011;4956;50.996;13.716;2022-07-29T14:59:02;3.60;;;2.90;;
9834;SDS011;4956;50.996;13.716;2022-07-29T15:02:22;4.27;;;3.27;;
9834;SDS011;4956;50.996;13.716;2022-07-29T15:05:42;4.32;;;3.00;;
9834;SDS011;4956;50.996;13.716;2022-07-29T15:09:03;6.23;;;3.03;;
9834;SDS011;4956;50.996;13.716;2022-07-29T15:12:23;5.47;;;3.40;;
9834;SDS011;4956;50.996;13.716;2022-07-29T15:15:43;3.70;;;3.13;;
9834;SDS011;4956;50.996;13.716;2022-07-29T15:19:05;4.70;;;3.08;;
9834;SDS011;4956;50.996;13.716;2022-07-29T15:22:25;5.35;;;3.03;;
9834;SDS011;4956;50.996;13.716;2022-07-29T15:25:46;11.25;;;3.20;;
9834;SDS011;4956;50.996;13.716;2022-07-29T15:29:07;3.70;;;3.20;;
9834;SDS011;4956;50.996;13.716;2022-07-29T15:32:27;4.00;;;3.17;;
9834;SDS011;4956;50.996;13.716;2022-07-29T15:35:47;3.57;;;3.17;;
9834;SDS011;4956;50.996;13.716;2022-07-29T15:39:08;8.10;;;3.13;;
9834;SDS011;4956;50.996;13.716;2022-07-29T15:42:29;4.25;;;2.97;;
9834;SDS011;4956;50.996;13.716;2022-07-29T15:45:49;7.20;;;3.30;;
9834;SDS011;4956;50.996;13.716;2022-07-29T15:49:29;6.32;;;3.20;;
9834;SDS011;4956;50.996;13.716;2022-07-29T15:52:53;4.47;;;3.00;;
9834;SDS011;4956;50.996;13.716;2022-07-29T15:56:13;4.10;;;2.80;;
9834;SDS011;4956;50.996;13.716;2022-07-29T15:59:33;5.40;;;3.00;;
9834;SDS011;4956;50.996;13.716;2022-07-29T16:02:53;4.50;;;3.23;;
9834;SDS011;4956;50.996;13.716;2022-07-29T16:06:14;3.70;;;3.00;;
9834;SDS011;4956;50.996;13.716;2022-07-29T16:09:34;3.75;;;3.08;;
9834;SDS011;4956;50.996;13.716;2022-07-29T16:12:54;3.90;;;3.03;;
9834;SDS011;4956;50.996;13.716;2022-07-29T16:16:15;5.20;;;3.00;;
9834;SDS011;4956;50.996;13.716;2022-07-29T16:19:37;8.88;;;3.58;;
9834;SDS011;4956;50.996;13.716;2022-07-29T16:22:57;7.77;;;3.73;;
9834;SDS011;4956;50.996;13.716;2022-07-29T16:26:17;10.30;;;4.00;;
9834;SDS011;4956;50.996;13.716;2022-07-29T16:29:37;6.23;;;3.80;;
9834;SDS011;4956;50.996;13.716;2022-07-29T16:33:00;11.00;;;5.60;;
9834;SDS011;4956;50.996;13.716;2022-07-29T16:36:20;16.52;;;5.72;;
9834;SDS011;4956;50.996;13.716;2022-07-29T16:39:41;21.08;;;6.78;;
9834;SDS011;4956;50.996;13.716;2022-07-29T16:43:02;11.32;;;7.40;;
9834;SDS011;4956;50.996;13.716;2022-07-29T16:46:22;9.37;;;6.90;;
9834;SDS011;4956;50.996;13.716;2022-07-29T16:49:42;9.18;;;6.43;;
9834;SDS011;4956;50.996;13.716;2022-07-29T16:53:03;13.30;;;7.00;;
9834;SDS011;4956;50.996;13.716;2022-07-29T16:56:23;13.13;;;6.80;;
9834;SDS011;4956;50.996;13.716;2022-07-29T16:59:43;10.38;;;6.78;;
9834;SDS011;4956;50.996;13.716;2022-07-29T17:03:04;10.63;;;6.20;;
9834;SDS011;4956;50.996;13.716;2022-07-29T17:06:24;16.55;;;9.45;;
9834;SDS011;4956;50.996;13.716;2022-07-29T17:09:45;11.23;;;8.50;;
9834;SDS011;4956;50.996;13.716;2022-07-29T17:13:05;12.27;;;9.17;;
9834;SDS011;4956;50.996;13.716;2022-07-29T17:16:26;15.77;;;9.73;;
9834;SDS011;4956;50.996;13.716;2022-07-29T17:19:47;13.98;;;9.75;;
9834;SDS011;4956;50.996;13.716;2022-07-29T17:23:07;12.17;;;8.83;;
9834;SDS011;4956;50.996;13.716;2022-07-29T17:26:27;10.55;;;7.72;;
9834;SDS011;4956;50.996;13.716;2022-07-29T17:29:47;10.20;;;7.80;;
9834;SDS011;4956;50.996;13.716;2022-07-29T17:33:08;9.40;;;7.30;;
9834;SDS011;4956;50.996;13.716;2022-07-29T17:36:29;11.17;;;7.47;;
9834;SDS011;4956;50.996;13.716;2022-07-29T17:39:49;9.18;;;6.30;;
9834;SDS011;4956;50.996;13.716;2022-07-29T17:43:10;6.35;;;5.70;;
9834;SDS011;4956;50.996;13.716;2022-07-29T17:46:30;7.17;;;5.70;;
9834;SDS011;4956;50.996;13.716;2022-07-29T17:49:50;7.73;;;5.90;;
9834;SDS011;4956;50.996;13.716;2022-07-29T17:53:10;7.50;;;5.80;;
9834;SDS011;4956;50.996;13.716;2022-07-29T17:56:31;8.13;;;5.90;;
9834;SDS011;4956;50.996;13.716;2022-07-29T17:59:51;8.35;;;5.63;;
9834;SDS011;4956;50.996;13.716;2022-07-29T18:03:11;5.90;;;5.27;;
9834;SDS011;4956;50.996;13.716;2022-07-29T18:06:32;7.70;;;5.40;;
9834;SDS011;4956;50.996;13.716;2022-07-29T18:09:52;7.32;;;5.60;;
9834;SDS011;4956;50.996;13.716;2022-07-29T18:13:13;7.50;;;5.90;;
9834;SDS011;4956;50.996;13.716;2022-07-29T18:16:33;8.50;;;5.53;;
9834;SDS011;4956;50.996;13.716;2022-07-29T18:19:53;10.80;;;5.27;;
9834;SDS011;4956;50.996;13.716;2022-07-29T18:23:14;10.13;;;5.30;;
9834;SDS011;4956;50.996;13.716;2022-07-29T18:26:36;7.57;;;5.32;;
9834;SDS011;4956;50.996;13.716;2022-07-29T18:29:57;9.35;;;5.00;;
9834;SDS011;4956;50.996;13.716;2022-07-29T18:33:17;8.47;;;5.00;;
9834;SDS011;4956;50.996;13.716;2022-07-29T18:36:38;11.15;;;4.82;;
9834;SDS011;4956;50.996;13.716;2022-07-29T18:39:59;9.50;;;5.10;;
9834;SDS011;4956;50.996;13.716;2022-07-29T18:43:19;20.23;;;5.90;;
9834;SDS011;4956;50.996;13.716;2022-07-29T18:46:40;12.33;;;4.93;;
9834;SDS011;4956;50.996;13.716;2022-07-29T18:50:01;11.77;;;5.23;;
9834;SDS011;4956;50.996;13.716;2022-07-29T18:53:24;15.80;;;4.85;;
9834;SDS011;4956;50.996;13.716;2022-07-29T18:56:45;11.77;;;4.80;;
9834;SDS011;4956;50.996;13.716;2022-07-29T19:00:05;12.93;;;4.55;;
9834;SDS011;4956;50.996;13.716;2022-07-29T19:03:26;14.27;;;5.43;;
9834;SDS011;4956;50.996;13.716;2022-07-29T19:06:47;14.97;;;4.60;;
9834;SDS011;4956;50.996;13.716;2022-07-29T19:10:07;13.18;;;4.60;;
9834;SDS011;4956;50.996;13.716;2022-07-29T19:13:28;9.95;;;4.50;;
9834;SDS011;4956;50.996;13.716;2022-07-29T19:16:48;15.27;;;4.88;;
9834;SDS011;4956;50.996;13.716;2022-07-29T19:20:08;9.97;;;4.53;;
9834;SDS011;4956;50.996;13.716;2022-07-29T19:23:29;15.30;;;4.95;;
9834;SDS011;4956;50.996;13.716;2022-07-29T19:26:50;8.15;;;4.57;;
9834;SDS011;4956;50.996;13.716;2022-07-29T19:30:10;10.55;;;5.05;;
9834;SDS011;4956;50.996;13.716;2022-07-29T19:33:31;10.90;;;4.53;;
9834;SDS011;4956;50.996;13.716;2022-07-29T19:36:51;19.27;;;5.90;;
9834;SDS011;4956;50.996;13.716;2022-07-29T19:40:11;27.90;;;5.88;;
9834;SDS011;4956;50.996;13.716;2022-07-29T19:43:32;17.73;;;5.05;;
9834;SDS011;4956;50.996;13.716;2022-07-29T19:46:53;13.40;;;5.00;;
9834;SDS011;4956;50.996;13.716;2022-07-29T19:50:14;14.30;;;4.80;;
9834;SDS011;4956;50.996;13.716;2022-07-29T19:53:35;15.88;;;4.93;;
9834;SDS011;4956;50.996;13.716;2022-07-29T19:56:55;17.38;;;6.30;;
9834;SDS011;4956;50.996;13.716;2022-07-29T20:00:15;27.80;;;6.00;;
9834;SDS011;4956;50.996;13.716;2022-07-29T20:03:37;24.33;;;5.47;;
9834;SDS011;4956;50.996;13.716;2022-07-29T20:06:58;21.45;;;6.00;;
9834;SDS011;4956;50.996;13.716;2022-07-29T20:10:20;23.40;;;5.55;;
9834;SDS011;4956;50.996;13.716;2022-07-29T20:13:40;26.40;;;5.87;;
9834;SDS011;4956;50.996;13.716;2022-07-29T20:17:00;17.63;;;4.80;;
9834;SDS011;4956;50.996;13.716;2022-07-29T20:20:20;7.77;;;4.27;;
9834;SDS011;4956;50.996;13.716;2022-07-29T20:23:42;9.13;;;4.03;;
9834;SDS011;4956;50.996;13.716;2022-07-29T20:27:03;8.82;;;4.32;;
9834;SDS011;4956;50.996;13.716;2022-07-29T20:30:25;7.43;;;4.20;;
9834;SDS011;4956;50.996;13.716;2022-07-29T20:33:46;9.20;;;3.77;;
9834;SDS011;4956;50.996;13.716;2022-07-29T20:37:06;8.40;;;3.90;;
9834;SDS011;4956;50.996;13.716;2022-07-29T20:40:30;7.82;;;3.83;;
9834;SDS011;4956;50.996;13.716;2022-07-29T20:43:50;5.47;;;4.18;;
9834;SDS011;4956;50.996;13.716;2022-07-29T20:47:11;6.65;;;3.83;;
9834;SDS011;4956;50.996;13.716;2022-07-29T20:50:31;5.20;;;4.10;;
9834;SDS011;4956;50.996;13.716;2022-07-29T20:53:52;6.00;;;4.00;;
9834;SDS011;4956;50.996;13.716;2022-07-29T20:57:12;7.67;;;3.90;;